Time;durP1;ratioP1;P1;durP2;ratioP2;P2;SDS_P1;SDS_P2;PMS_P1;PMS_P2;Temp;Humidity;BMP_temperature;BMP_pressure;BME280_temperature;BME280_humidity;BME280_pressure;Samples;Min_cycle;Max_cycle;Signal;HPM_P1;HPM_P2
2022/07/26 00:01:30;;;;;;;4.07;1.75;;;;;;;21.17;92.28;96064.44;5049817;28;20036;-77
2022/07/26 00:03:56;;;;;;;3.15;1.73;;;;;;;21.10;92.36;96066.41;5033551;28;20036;-78
2022/07/26 00:06:24;;;;;;;2.63;1.38;;;;;;;21.07;92.57;96062.34;5020609;28;20554;-77
2022/07/26 00:08:50;;;;;;;5.57;1.63;;;;;;;20.98;94.08;96060.22;5029244;28;20091;-77
2022/07/26 00:11:16;;;;;;;6.72;1.88;;;;;;;21.02;93.91;96056.84;5045991;28;20452;-77
2022/07/26 00:13:41;;;;;;;2.55;1.50;;;;;;;20.91;96.18;96065.66;5043058;28;20036;-77
2022/07/26 00:16:08;;;;;;;4.78;1.70;;;;;;;20.90;96.23;96054.16;5033735;28;20028;-77
2022/07/26 00:18:33;;;;;;;4.20;1.77;;;;;;;20.92;96.42;96060.09;5032437;28;20032;-77
2022/07/26 00:20:59;;;;;;;5.50;2.10;;;;;;;20.87;95.57;96064.50;5040937;28;20032;-77
2022/07/26 00:23:25;;;;;;;4.90;1.48;;;;;;;20.82;96.44;96065.16;5040722;28;20040;-77
2022/07/26 00:25:50;;;;;;;7.50;2.20;;;;;;;20.84;96.38;96060.41;5032343;28;20179;-77
2022/07/26 00:28:16;;;;;;;4.85;1.80;;;;;;;20.76;97.42;96074.13;5014124;28;20541;-77
2022/07/26 00:30:42;;;;;;;4.35;1.50;;;;;;;20.67;98.48;96068.25;5014320;28;20107;-77
2022/07/26 00:33:07;;;;;;;3.55;1.63;;;;;;;20.61;98.66;96068.34;5028905;28;20956;-77
2022/07/26 00:35:33;;;;;;;3.75;1.75;;;;;;;20.63;99.62;96069.75;5021809;28;20448;-77
2022/07/26 00:37:59;;;;;;;5.18;1.88;;;;;;;20.64;99.96;96067.91;5023894;28;20584;-77
2022/07/26 00:40:25;;;;;;;4.55;1.75;;;;;;;20.50;100.00;96064.56;5025224;28;20128;-77
2022/07/26 00:42:51;;;;;;;4.53;1.65;;;;;;;20.57;100.00;96064.50;5024805;28;20076;-77
2022/07/26 00:45:16;;;;;;;6.82;1.85;;;;;;;20.56;100.00;96066.38;5028985;28;20112;-77
2022/07/26 00:47:43;;;;;;;3.90;2.10;;;;;;;20.58;100.00;96061.59;5014077;28;20033;-77
2022/07/26 00:50:12;;;;;;;4.28;1.52;;;;;;;20.57;99.79;96062.66;5036530;28;20037;-77
2022/07/26 00:52:40;;;;;;;4.47;1.52;;;;;;;20.57;99.61;96069.84;5024962;28;20306;-77
2022/07/26 00:55:06;;;;;;;2.42;1.50;;;;;;;20.49;100.00;96066.41;5021667;28;20049;-77
2022/07/26 00:57:32;;;;;;;6.40;1.60;;;;;;;20.44;100.00;96071.59;5012619;28;20036;-77
2022/07/26 01:00:00;;;;;;;3.90;1.27;;;;;;;20.41;100.00;96074.72;5036222;28;20037;-77
2022/07/26 01:02:25;;;;;;;3.15;1.50;;;;;;;20.36;100.00;96079.94;5012631;28;20036;-77
2022/07/26 01:04:51;;;;;;;3.35;1.58;;;;;;;20.38;100.00;96074.38;5043295;28;20037;-77
2022/07/26 01:07:17;;;;;;;3.13;1.40;;;;;;;20.35;100.00;96088.16;5024700;28;20553;-77
2022/07/26 01:09:44;;;;;;;2.70;1.48;;;;;;;20.38;100.00;96087.72;5039378;28;20116;-77
2022/07/26 01:12:10;;;;;;;4.22;1.92;;;;;;;20.36;100.00;96084.47;5038282;28;20053;-77
2022/07/26 01:14:36;;;;;;;3.50;1.70;;;;;;;20.35;100.00;96082.81;5012757;28;20076;-77
2022/07/26 01:17:01;;;;;;;4.90;1.80;;;;;;;20.32;100.00;96068.09;4998529;28;20083;-78
2022/07/26 01:19:27;;;;;;;4.60;1.67;;;;;;;20.36;100.00;96066.59;5016744;28;20041;-77
2022/07/26 01:21:53;;;;;;;5.88;1.42;;;;;;;20.35;100.00;96069.47;5032511;28;20033;-77
2022/07/26 01:24:19;;;;;;;2.67;1.50;;;;;;;20.28;100.00;96066.88;5044399;28;20040;-77
2022/07/26 01:26:45;;;;;;;3.80;1.88;;;;;;;20.33;100.00;96059.03;5023059;28;20116;-77
2022/07/26 01:29:10;;;;;;;3.35;1.63;;;;;;;20.32;100.00;96057.41;5050202;28;20465;-77
2022/07/26 01:31:36;;;;;;;5.35;1.75;;;;;;;20.27;100.00;96065.25;5024757;28;20036;-77
2022/07/26 01:34:02;;;;;;;2.03;1.35;;;;;;;20.29;100.00;96055.19;5042103;28;20034;-77
2022/07/26 01:36:28;;;;;;;5.15;1.38;;;;;;;20.34;100.00;96055.31;5037759;28;20045;-77
2022/07/26 01:38:53;;;;;;;2.85;1.38;;;;;;;20.34;100.00;96060.66;5022188;28;20263;-77
2022/07/26 01:41:19;;;;;;;4.38;1.65;;;;;;;20.37;100.00;96068.22;5056451;28;20020;-77
2022/07/26 01:43:45;;;;;;;7.53;1.67;;;;;;;20.38;100.00;96056.47;5017873;28;20052;-77
2022/07/26 01:46:12;;;;;;;5.43;1.67;;;;;;;20.28;100.00;96071.41;5038645;28;20078;-77
2022/07/26 01:48:38;;;;;;;3.20;1.60;;;;;;;20.19;100.00;96074.41;5040082;28;20519;-77
2022/07/26 01:51:04;;;;;;;6.35;1.95;;;;;;;20.29;100.00;96073.03;5034690;28;20094;-77
2022/07/26 01:53:30;;;;;;;4.15;1.60;;;;;;;20.29;100.00;96073.88;5039710;28;20036;-77
2022/07/26 01:55:56;;;;;;;3.25;1.80;;;;;;;20.32;100.00;96068.09;5025449;28;20032;-77
2022/07/26 01:58:21;;;;;;;4.05;1.63;;;;;;;20.30;100.00;96077.34;5029038;28;20100;-77
2022/07/26 02:00:48;;;;;;;5.95;2.13;;;;;;;20.29;100.00;96068.53;5060689;28;20059;-77
2022/07/26 02:03:13;;;;;;;3.42;1.33;;;;;;;20.25;100.00;96073.50;5035222;28;20775;-77
2022/07/26 02:05:39;;;;;;;7.75;1.67;;;;;;;20.13;100.00;96077.16;5039262;28;20033;-77
2022/07/26 02:08:05;;;;;;;3.13;1.42;;;;;;;20.09;100.00;96086.66;5036744;28;20762;-77
2022/07/26 02:13:16;;;;;;;4.05;2.08;;;;;;;20.00;100.00;96086.09;5022995;28;20494;-77
2022/07/26 02:15:42;;;;;;;4.53;1.70;;;;;;;19.89;100.00;96093.00;5052188;28;20029;-77
2022/07/26 02:18:08;;;;;;;3.20;1.50;;;;;;;19.93;100.00;96094.19;5031687;28;20431;-77
2022/07/26 02:20:34;;;;;;;5.90;1.60;;;;;;;19.88;100.00;96098.53;5040068;28;20478;-77
2022/07/26 02:23:00;;;;;;;5.30;1.55;;;;;;;19.79;100.00;96106.03;5051964;28;20055;-77
2022/07/26 02:25:25;;;;;;;9.30;2.53;;;;;;;19.73;100.00;96093.56;5054786;28;20037;-77
2022/07/26 02:27:51;;;;;;;6.78;1.80;;;;;;;19.56;100.00;96101.28;5052028;28;20033;-78
2022/07/26 02:30:17;;;;;;;5.07;1.80;;;;;;;19.28;100.00;96109.72;5051006;28;20383;-77
2022/07/26 02:32:43;;;;;;;6.40;1.92;;;;;;;19.21;100.00;96107.09;5035893;28;20056;-77
2022/07/26 02:35:09;;;;;;;2.63;1.60;;;;;;;19.20;100.00;96110.78;5025769;28;20040;-77
2022/07/26 02:37:35;;;;;;;3.47;1.50;;;;;;;19.13;100.00;96102.03;5040160;28;20119;-77
2022/07/26 02:40:02;;;;;;;6.32;2.40;;;;;;;19.01;100.00;96101.09;5032953;28;20032;-77
2022/07/26 02:42:27;;;;;;;2.95;1.75;;;;;;;19.11;100.00;96097.94;5033259;28;20037;-77
2022/07/26 02:44:53;;;;;;;4.38;1.60;;;;;;;19.00;100.00;96099.47;5011241;28;20760;-77
2022/07/26 02:47:19;;;;;;;5.95;1.90;;;;;;;18.92;100.00;96103.22;5052019;28;20028;-77
2022/07/26 02:49:46;;;;;;;5.75;1.50;;;;;;;18.81;100.00;96103.88;5053201;28;20088;-77
2022/07/26 02:52:12;;;;;;;3.88;1.40;;;;;;;19.03;100.00;96104.38;5013646;28;20558;-77
2022/07/26 02:54:38;;;;;;;3.20;1.55;;;;;;;18.95;100.00;96105.44;5035710;28;20441;-78
2022/07/26 02:57:04;;;;;;;5.30;1.75;;;;;;;18.97;100.00;96102.56;5033019;28;20021;-77
2022/07/26 02:59:29;;;;;;;3.30;1.23;;;;;;;18.99;100.00;96090.66;5058508;28;20072;-77
2022/07/26 03:01:55;;;;;;;3.35;1.60;;;;;;;18.92;100.00;96094.41;5039899;28;20033;-77
2022/07/26 03:04:21;;;;;;;8.68;4.50;;;;;;;18.95;100.00;96088.66;5033748;28;20493;-78
2022/07/26 03:06:46;;;;;;;5.07;3.00;;;;;;;19.16;100.00;96084.81;5052962;28;20040;-77
2022/07/26 03:09:12;;;;;;;6.30;2.70;;;;;;;19.09;100.00;96095.50;5054519;28;20465;-77
2022/07/26 03:11:38;;;;;;;3.30;1.67;;;;;;;19.07;100.00;96100.22;5062931;28;20548;-77
2022/07/26 03:14:04;;;;;;;2.60;1.25;;;;;;;18.99;100.00;96106.66;5037268;28;20039;-77
2022/07/26 03:16:30;;;;;;;5.63;1.63;;;;;;;18.80;100.00;96097.72;5032582;28;20036;-78
2022/07/26 03:18:56;;;;;;;3.25;1.50;;;;;;;18.76;100.00;96096.53;5051100;28;20047;-77
2022/07/26 03:21:21;;;;;;;2.70;1.20;;;;;;;18.80;100.00;96104.91;5055746;28;20373;-77
2022/07/26 03:23:47;;;;;;;3.00;1.40;;;;;;;18.64;100.00;96102.72;5018972;28;20029;-77
2022/07/26 03:26:14;;;;;;;5.45;1.70;;;;;;;18.52;100.00;96106.06;5049658;28;20021;-77
2022/07/26 03:28:41;;;;;;;2.33;1.40;;;;;;;18.52;100.00;96115.91;5048830;28;20033;-77
2022/07/26 03:31:07;;;;;;;2.05;1.40;;;;;;;18.54;100.00;96098.69;5028258;28;20043;-77
2022/07/26 03:33:33;;;;;;;2.53;1.60;;;;;;;18.63;100.00;96109.06;5040251;28;20060;-78
2022/07/26 03:35:58;;;;;;;3.78;1.38;;;;;;;18.64;100.00;96114.19;5024608;28;20037;-77
2022/07/26 03:38:24;;;;;;;1.77;1.20;;;;;;;18.66;100.00;96108.66;5011775;28;20039;-77
2022/07/26 03:40:50;;;;;;;2.97;1.65;;;;;;;18.74;100.00;96100.44;5058123;28;20086;-78
2022/07/26 03:43:18;;;;;;;3.63;1.80;;;;;;;18.74;100.00;96109.25;5046508;28;20021;-78
2022/07/26 03:45:44;;;;;;;3.55;1.50;;;;;;;18.74;100.00;96108.41;5057331;28;20129;-77
2022/07/26 03:48:10;;;;;;;4.03;1.80;;;;;;;18.71;100.00;96108.81;5023742;28;20020;-78
2022/07/26 03:50:36;;;;;;;2.15;1.30;;;;;;;18.75;100.00;96113.56;5026450;28;20041;-78
2022/07/26 03:53:02;;;;;;;3.83;1.60;;;;;;;18.67;100.00;96111.09;5040130;28;20094;-78
2022/07/26 03:58:12;;;;;;;5.00;1.70;;;;;;;18.67;100.00;96118.28;5050251;28;20071;-78
2022/07/26 04:00:38;;;;;;;5.05;1.80;;;;;;;18.65;100.00;96115.84;5020393;28;20502;-78
2022/07/26 04:03:04;;;;;;;5.13;1.65;;;;;;;18.47;100.00;96121.84;5053262;28;20033;-78
2022/07/26 04:05:30;;;;;;;2.33;1.60;;;;;;;18.56;100.00;96117.09;5017081;28;20044;-78
2022/07/26 04:07:55;;;;;;;3.42;1.70;;;;;;;18.50;100.00;96124.06;5051077;28;20025;-78
2022/07/26 04:10:22;;;;;;;5.70;2.10;;;;;;;18.43;100.00;96125.97;5051310;28;20075;-77
2022/07/26 04:12:48;;;;;;;3.75;1.80;;;;;;;18.55;100.00;96118.94;5055802;28;20033;-78
2022/07/26 04:15:15;;;;;;;5.90;1.70;;;;;;;18.60;100.00;96129.75;5041732;28;20060;-78
2022/07/26 04:17:42;;;;;;;3.53;1.88;;;;;;;18.59;100.00;96124.66;5033651;28;20043;-78
2022/07/26 04:20:09;;;;;;;3.60;1.88;;;;;;;18.60;100.00;96118.31;5037028;28;20381;-78
2022/07/26 04:22:36;;;;;;;4.05;1.48;;;;;;;18.63;100.00;96127.72;5055644;28;20037;-78
2022/07/26 04:25:04;;;;;;;5.97;2.10;;;;;;;18.62;100.00;96132.25;5055199;28;20090;-78
2022/07/26 04:27:30;;;;;;;3.20;1.50;;;;;;;18.66;100.00;96129.97;5049857;28;20752;-78
2022/07/26 04:29:56;;;;;;;6.32;1.48;;;;;;;18.52;100.00;96127.34;5046220;28;20082;-78
2022/07/26 04:32:22;;;;;;;4.40;1.88;;;;;;;18.64;100.00;96132.81;5027457;28;20124;-78
2022/07/26 04:34:48;;;;;;;2.88;1.42;;;;;;;18.59;100.00;96125.47;5036146;28;20032;-78
2022/07/26 04:37:13;;;;;;;2.70;1.63;;;;;;;18.66;100.00;96130.78;5010425;28;20048;-78
2022/07/26 04:39:39;;;;;;;2.45;1.40;;;;;;;18.61;100.00;96128.75;5041869;28;20063;-78
2022/07/26 04:42:05;;;;;;;4.20;1.85;;;;;;;18.65;100.00;96129.16;5039799;28;20704;-78
2022/07/26 04:44:30;;;;;;;2.30;1.55;;;;;;;18.71;100.00;96140.78;5021214;28;20386;-78
2022/07/26 04:46:56;;;;;;;4.57;1.58;;;;;;;18.67;100.00;96139.56;5024474;28;20029;-78
2022/07/26 04:49:22;;;;;;;4.28;1.73;;;;;;;18.64;100.00;96140.00;5031404;28;20032;-78
2022/07/26 04:51:47;;;;;;;4.30;1.80;;;;;;;18.72;100.00;96140.63;5035323;28;20064;-78
2022/07/26 04:54:19;;;;;;;3.65;2.05;;;;;;;18.58;100.00;96145.16;5033550;28;20051;-78
2022/07/26 04:56:45;;;;;;;5.05;2.45;;;;;;;18.48;100.00;96143.97;5019902;28;20037;-79
2022/07/26 04:59:10;;;;;;;3.80;1.70;;;;;;;18.54;100.00;96143.97;5020813;28;20514;-78
2022/07/26 05:01:36;;;;;;;5.07;1.90;;;;;;;18.56;100.00;96149.88;5048265;28;20041;-78
2022/07/26 05:04:02;;;;;;;4.82;1.80;;;;;;;18.56;100.00;96149.88;5031947;28;20040;-78
2022/07/26 05:06:27;;;;;;;4.22;1.67;;;;;;;18.63;100.00;96157.03;5026894;28;20053;-77
2022/07/26 05:08:53;;;;;;;3.67;1.52;;;;;;;18.59;100.00;96149.44;5023776;28;20052;-78
2022/07/26 05:11:19;;;;;;;6.68;2.10;;;;;;;18.70;100.00;96141.81;5019902;28;20074;-78
2022/07/26 05:13:45;;;;;;;6.28;1.92;;;;;;;18.78;100.00;96137.09;5058074;28;20072;-78
2022/07/26 05:16:10;;;;;;;14.88;2.80;;;;;;;18.89;100.00;96138.28;5053602;28;20028;-78
2022/07/26 05:18:36;;;;;;;5.10;1.73;;;;;;;19.08;100.00;96132.00;5062660;28;20032;-78
2022/07/26 05:21:02;;;;;;;6.28;1.88;;;;;;;19.22;100.00;96122.06;5040546;28;20024;-78
2022/07/26 05:23:27;;;;;;;4.25;2.00;;;;;;;19.27;100.00;96116.91;5022208;28;20102;-78
2022/07/26 05:25:54;;;;;;;3.03;1.58;;;;;;;19.49;100.00;96117.34;5051126;28;20108;-78
2022/07/26 05:28:19;;;;;;;3.00;1.45;;;;;;;19.60;100.00;96115.00;5049884;28;20029;-78
2022/07/26 05:30:45;;;;;;;2.90;1.65;;;;;;;19.51;100.00;96125.94;5033482;28;20037;-77
2022/07/26 05:33:11;;;;;;;4.22;1.83;;;;;;;19.45;100.00;96129.50;5036138;28;20045;-78
2022/07/26 05:35:37;;;;;;;4.05;1.60;;;;;;;19.49;100.00;96130.69;5058519;28;20107;-78
2022/07/26 05:38:03;;;;;;;4.22;1.80;;;;;;;19.67;100.00;96134.47;5034301;28;20033;-78
2022/07/26 05:40:28;;;;;;;3.30;1.55;;;;;;;19.72;100.00;96134.63;5053919;28;20053;-78
2022/07/26 05:42:54;;;;;;;2.38;1.40;;;;;;;20.03;100.00;96123.03;5031632;28;20547;-78
2022/07/26 05:45:20;;;;;;;3.08;1.50;;;;;;;20.01;100.00;96125.91;5043775;28;20476;-78
2022/07/26 05:47:51;;;;;;;3.60;1.77;;;;;;;19.85;100.00;96131.84;5047095;28;20041;-78
2022/07/26 05:50:18;;;;;;;4.68;1.60;;;;;;;19.90;100.00;96136.50;5032925;28;20025;-77
2022/07/26 05:52:44;;;;;;;2.83;1.50;;;;;;;19.97;100.00;96130.06;5054635;28;20028;-79
2022/07/26 05:55:10;;;;;;;5.47;1.50;;;;;;;20.07;100.00;96128.75;5017956;28;20037;-78
2022/07/26 05:57:40;;;;;;;3.17;1.45;;;;;;;20.36;100.00;96125.34;5032011;28;20048;-78
2022/07/26 06:00:08;;;;;;;4.72;1.67;;;;;;;20.37;100.00;96128.84;5025398;28;20114;-78
2022/07/26 06:02:37;;;;;;;2.95;1.63;;;;;;;20.81;100.00;96127.69;5042370;28;20025;-78
2022/07/26 06:05:04;;;;;;;7.03;1.83;;;;;;;20.77;100.00;96125.69;5031365;28;20134;-79
2022/07/26 06:07:29;;;;;;;2.55;1.60;;;;;;;20.58;100.00;96135.59;5056832;28;20028;-78
2022/07/26 06:09:55;;;;;;;3.05;1.60;;;;;;;20.82;100.00;96128.50;5030983;28;20655;-79
2022/07/26 06:12:21;;;;;;;3.60;1.77;;;;;;;21.28;100.00;96138.53;5036142;28;20033;-79
2022/07/26 06:14:46;;;;;;;3.78;1.70;;;;;;;21.61;100.00;96134.56;5008679;28;20032;-78
2022/07/26 06:17:12;;;;;;;3.88;1.70;;;;;;;21.98;100.00;96129.78;5045661;28;20382;-78
2022/07/26 06:19:38;;;;;;;4.20;1.83;;;;;;;21.66;100.00;96126.63;5035545;28;20038;-78
2022/07/26 06:22:03;;;;;;;3.03;1.63;;;;;;;22.09;100.00;96131.63;5031288;28;20053;-78
2022/07/26 06:24:29;;;;;;;2.97;1.60;;;;;;;22.10;100.00;96127.13;5039954;28;20072;-78
2022/07/26 06:26:56;;;;;;;4.63;1.65;;;;;;;22.07;100.00;96127.59;5032204;28;20059;-77
2022/07/26 06:29:22;;;;;;;6.32;1.88;;;;;;;22.46;100.00;96122.53;5031807;28;20032;-78
2022/07/26 06:31:48;;;;;;;4.03;1.60;;;;;;;22.74;100.00;96119.91;5031498;28;20128;-78
2022/07/26 06:34:14;;;;;;;3.88;1.40;;;;;;;22.51;100.00;96122.66;5064542;28;20665;-77
2022/07/26 06:36:40;;;;;;;5.90;2.22;;;;;;;22.64;100.00;96132.28;5051306;28;20115;-77
2022/07/26 06:39:06;;;;;;;3.28;1.67;;;;;;;23.06;100.00;96124.78;5038966;28;20125;-77
2022/07/26 06:41:32;;;;;;;3.88;1.50;;;;;;;22.87;100.00;96136.75;5024051;28;20568;-78
2022/07/26 06:43:57;;;;;;;2.85;1.50;;;;;;;23.27;100.00;96128.66;5046637;28;20055;-77
2022/07/26 06:46:23;;;;;;;3.38;1.90;;;;;;;23.69;100.00;96125.63;5048558;28;20024;-77
2022/07/26 06:48:49;;;;;;;3.85;1.90;;;;;;;23.50;100.00;96125.81;5039823;28;20081;-77
2022/07/26 06:51:15;;;;;;;2.83;1.60;;;;;;;23.63;100.00;96122.00;5053668;28;20025;-77
2022/07/26 06:53:41;;;;;;;3.45;2.00;;;;;;;23.98;100.00;96112.91;5023000;28;20582;-77
2022/07/26 06:56:07;;;;;;;3.95;1.55;;;;;;;24.23;94.74;96124.00;5036077;28;20031;-77
2022/07/26 06:58:33;;;;;;;4.07;1.98;;;;;;;24.43;96.63;96107.34;5051302;28;20029;-77
2022/07/26 07:01:00;;;;;;;3.42;1.58;;;;;;;24.56;95.98;96116.91;5056326;28;20507;-77
2022/07/26 07:03:25;;;;;;;3.50;1.35;;;;;;;24.57;93.42;96121.22;5035318;28;20033;-78
2022/07/26 07:05:51;;;;;;;3.25;1.65;;;;;;;24.89;90.68;96125.91;5055037;28;20040;-78
2022/07/26 07:08:17;;;;;;;3.30;1.77;;;;;;;24.82;92.69;96117.22;5026039;28;20074;-78
2022/07/26 07:10:43;;;;;;;5.30;2.00;;;;;;;25.12;90.34;96120.25;5037762;28;20039;-78
2022/07/26 07:13:08;;;;;;;4.53;1.73;;;;;;;24.64;94.38;96124.53;5038146;28;20140;-78
2022/07/26 07:15:34;;;;;;;5.03;2.05;;;;;;;25.33;91.46;96117.75;5039124;28;20101;-78
2022/07/26 07:18:00;;;;;;;4.40;1.63;;;;;;;25.06;92.01;96117.75;5048744;28;20040;-77
2022/07/26 07:20:27;;;;;;;3.80;1.55;;;;;;;25.08;90.52;96116.44;5022257;28;20013;-78
2022/07/26 07:22:53;;;;;;;4.75;1.58;;;;;;;25.56;88.16;96119.31;5055256;28;20075;-78
2022/07/26 07:25:19;;;;;;;4.07;2.05;;;;;;;25.76;86.11;96113.28;5056365;28;20033;-78
2022/07/26 07:27:44;;;;;;;5.32;1.80;;;;;;;26.25;82.18;96121.94;5011567;28;20036;-78
2022/07/26 07:30:11;;;;;;;6.20;2.03;;;;;;;25.47;87.47;96118.97;5034018;28;20107;-78
2022/07/26 07:32:36;;;;;;;4.60;1.98;;;;;;;25.21;89.32;96117.09;5051775;28;20086;-78
2022/07/26 07:35:03;;;;;;;3.30;2.05;;;;;;;24.78;90.68;96126.84;5052587;28;20028;-78
2022/07/26 07:37:28;;;;;;;4.50;1.83;;;;;;;24.06;97.10;96131.28;5025454;28;20060;-77
2022/07/26 07:39:54;;;;;;;4.03;2.30;;;;;;;23.08;100.00;96127.25;5024009;28;20086;-78
2022/07/26 07:42:20;;;;;;;5.30;2.53;;;;;;;22.66;100.00;96130.97;5035096;28;20028;-78
2022/07/26 07:44:46;;;;;;;3.92;1.73;;;;;;;23.34;97.49;96125.81;5036906;28;20033;-78
2022/07/26 07:47:12;;;;;;;4.57;1.83;;;;;;;24.30;92.84;96117.63;5020761;28;20583;-78
2022/07/26 07:49:38;;;;;;;4.70;2.35;;;;;;;25.04;87.97;96120.66;5028043;28;20497;-78
2022/07/26 07:52:04;;;;;;;2.88;1.83;;;;;;;25.67;81.33;96118.31;5031985;28;20067;-78
2022/07/26 07:54:30;;;;;;;4.43;2.00;;;;;;;26.77;76.00;96110.34;5055122;28;20036;-79
2022/07/26 07:56:56;;;;;;;8.45;2.03;;;;;;;27.03;71.99;96110.44;5043763;28;20033;-78
2022/07/26 07:59:22;;;;;;;8.40;2.38;;;;;;;26.52;72.95;96110.25;5013565;28;20029;-78
2022/07/26 08:01:48;;;;;;;4.55;1.85;;;;;;;26.83;71.59;96110.34;5052176;28;20035;-78
2022/07/26 08:04:14;;;;;;;6.03;2.03;;;;;;;27.33;67.98;96104.28;5055651;28;20047;-79
2022/07/26 08:06:40;;;;;;;4.97;1.80;;;;;;;25.46;78.46;96113.84;5055455;28;20362;-78
2022/07/26 08:09:06;;;;;;;3.55;1.88;;;;;;;25.72;79.14;96112.13;5061803;28;20041;-78
2022/07/26 08:11:32;;;;;;;4.72;2.10;;;;;;;24.68;80.21;96114.94;5033684;28;20086;-78
2022/07/26 08:13:58;;;;;;;5.30;2.03;;;;;;;25.96;74.57;96113.44;5033595;28;20074;-79
2022/07/26 08:16:23;;;;;;;4.00;2.00;;;;;;;26.35;69.87;96110.41;5042193;28;20032;-78
2022/07/26 08:18:50;;;;;;;4.43;1.85;;;;;;;25.80;70.94;96117.09;5043751;28;20124;-79
2022/07/26 08:21:16;;;;;;;3.85;1.85;;;;;;;25.61;72.40;96116.63;5056449;28;20025;-78
2022/07/26 08:23:41;;;;;;;6.40;2.08;;;;;;;25.47;71.39;96118.16;5033646;28;20514;-79
2022/07/26 08:26:08;;;;;;;6.97;2.30;;;;;;;24.74;73.01;96120.34;5042488;28;20156;-78
2022/07/26 08:28:34;;;;;;;8.65;2.00;;;;;;;24.59;76.02;96123.69;5057658;28;20037;-77
2022/07/26 08:31:00;;;;;;;4.63;2.00;;;;;;;24.28;75.43;96122.44;5060949;28;20033;-77
2022/07/26 08:33:25;;;;;;;3.85;1.92;;;;;;;25.00;71.27;96119.56;5027339;28;20041;-77
2022/07/26 08:35:51;;;;;;;3.70;1.75;;;;;;;24.16;73.98;96122.56;5022187;28;20044;-77
2022/07/26 08:38:17;;;;;;;5.63;1.98;;;;;;;25.38;66.51;96118.59;5024464;28;20108;-77
2022/07/26 08:40:42;;;;;;;6.65;1.90;;;;;;;25.27;68.90;96122.28;5056187;28;20037;-77
2022/07/26 08:43:09;;;;;;;5.97;2.20;;;;;;;24.55;72.20;96130.63;5052801;28;20029;-75
2022/07/26 08:45:35;;;;;;;4.32;1.98;;;;;;;24.57;71.75;96137.34;5057374;28;20128;-76
2022/07/26 08:48:01;;;;;;;2.85;1.60;;;;;;;24.36;74.89;96135.44;5065550;28;20418;-76
2022/07/26 08:50:28;;;;;;;4.43;1.80;;;;;;;24.25;76.42;96144.44;5061393;28;20064;-78
2022/07/26 08:53:00;;;;;;;5.38;1.90;;;;;;;23.70;75.45;96144.16;5053665;28;20104;-76
2022/07/26 08:55:26;;;;;;;6.50;2.08;;;;;;;25.52;65.57;96137.88;5033599;28;20024;-77
2022/07/26 08:57:51;;;;;;;3.88;1.80;;;;;;;26.14;63.10;96138.34;5038031;28;20402;-77
2022/07/26 09:00:21;;;;;;;3.85;1.35;;;;;;;25.31;64.64;96144.91;5017770;28;20031;-78
2022/07/26 09:02:47;;;;;;;4.75;1.80;;;;;;;25.22;67.50;96145.63;5049808;28;20041;-77
2022/07/26 09:05:14;;;;;;;5.10;1.67;;;;;;;24.50;70.85;96144.81;5033809;28;20037;-77
2022/07/26 09:07:40;;;;;;;7.03;1.45;;;;;;;24.10;71.15;96147.72;5025679;28;20065;-77
2022/07/26 09:10:09;;;;;;;6.68;1.60;;;;;;;25.09;66.06;96146.84;5032337;28;20040;-80
2022/07/26 09:12:36;;;;;;;4.50;1.77;;;;;;;24.52;68.59;96144.56;5030376;28;20861;-77
2022/07/26 09:15:04;;;;;;;3.58;1.70;;;;;;;26.02;61.54;96147.44;5042373;28;20036;-77
2022/07/26 09:17:42;;;;;;;3.55;1.70;;;;;;;26.22;55.62;96145.91;5047846;28;20568;-78
2022/07/26 09:20:31;;;;;;;6.20;1.90;;;;;;;27.28;50.33;96139.38;5055631;28;20079;-78
2022/07/26 09:23:08;;;;;;;5.15;1.40;;;;;;;28.04;48.09;96135.91;5031742;28;20044;-78
2022/07/26 09:25:39;;;;;;;7.75;1.98;;;;;;;27.76;47.61;96134.56;5029128;28;20066;-78
2022/07/26 09:28:25;;;;;;;5.82;1.77;;;;;;;25.62;54.47;96147.91;5033940;28;20112;-77
2022/07/26 09:30:59;;;;;;;5.80;1.73;;;;;;;27.18;50.29;96150.16;5023267;28;20033;-77
2022/07/26 09:33:25;;;;;;;2.22;1.27;;;;;;;27.19;46.22;96155.28;5040214;28;20531;-77
2022/07/26 09:36:04;;;;;;;4.57;1.40;;;;;;;27.34;46.26;96138.31;5035759;28;20033;-77
2022/07/26 09:38:41;;;;;;;4.90;1.90;;;;;;;27.58;44.07;96141.28;5054472;28;20036;-78
2022/07/26 09:41:30;;;;;;;2.78;1.30;;;;;;;27.96;43.42;96134.53;5027466;28;20036;-78
2022/07/26 09:43:59;;;;;;;4.50;1.40;;;;;;;28.99;40.62;96134.25;5016362;28;20029;-78
2022/07/26 09:46:29;;;;;;;3.55;1.80;;;;;;;29.81;39.93;96139.97;5059257;28;20024;-78
2022/07/26 09:48:56;;;;;;;4.18;1.70;;;;;;;28.98;40.66;96143.47;5058590;28;20292;-78
2022/07/26 09:51:43;;;;;;;4.43;1.70;;;;;;;27.74;43.58;96142.13;5013557;28;20032;-78
2022/07/26 09:54:10;;;;;;;3.65;1.50;;;;;;;28.41;41.43;96145.59;5034246;28;20745;-78
2022/07/26 09:56:47;;;;;;;3.78;1.90;;;;;;;29.17;40.72;96147.16;5037830;28;20116;-78
2022/07/26 09:59:15;;;;;;;2.88;1.13;;;;;;;26.85;42.54;96146.78;5054163;28;20033;-78
2022/07/26 10:01:42;;;;;;;3.90;1.25;;;;;;;26.30;45.20;96165.13;5054253;28;20055;-77
2022/07/26 10:04:08;;;;;;;2.92;1.05;;;;;;;26.99;44.50;96163.28;5025512;28;20039;-78
2022/07/26 10:06:33;;;;;;;6.72;3.35;;;;;;;27.70;42.13;96159.97;5039909;28;20123;-77
2022/07/26 10:09:00;;;;;;;8.63;2.83;;;;;;;28.12;40.67;96154.25;5031383;28;20056;-78
2022/07/26 10:11:30;;;;;;;7.20;2.38;;;;;;;29.05;39.92;96152.13;5022303;28;20024;-78
2022/07/26 10:13:57;;;;;;;5.07;2.20;;;;;;;29.82;39.62;96149.75;5041852;28;20029;-78
2022/07/26 10:16:33;;;;;;;4.90;1.60;;;;;;;29.21;39.17;96150.97;5044108;28;20031;-77
2022/07/26 10:19:01;;;;;;;3.85;1.63;;;;;;;29.19;37.76;96155.84;5058445;28;20147;-77
2022/07/26 10:21:31;;;;;;;4.65;1.63;;;;;;;29.07;36.42;96153.44;5040715;28;20033;-77
2022/07/26 10:24:01;;;;;;;2.80;1.10;;;;;;;29.05;36.57;96154.84;5059359;28;20128;-77
2022/07/26 10:26:32;;;;;;;4.47;1.33;;;;;;;29.00;35.70;96155.66;5050645;28;20033;-77
2022/07/26 10:29:16;;;;;;;3.85;1.33;;;;;;;30.07;34.51;96149.50;5034449;28;20033;-77
2022/07/26 10:31:45;;;;;;;2.50;0.95;;;;;;;29.32;34.81;96149.81;5057314;28;20037;-77
2022/07/26 10:34:28;;;;;;;3.33;0.90;;;;;;;29.60;35.28;96156.41;5031776;28;20033;-78
2022/07/26 10:36:59;;;;;;;3.97;1.33;;;;;;;29.26;35.21;96153.63;5052664;28;20029;-77
2022/07/26 10:39:25;;;;;;;2.50;1.27;;;;;;;29.05;35.36;96160.25;5057591;28;20055;-77
2022/07/26 10:42:00;;;;;;;2.60;1.20;;;;;;;30.21;34.72;96157.00;5040811;28;20698;-78
2022/07/26 10:44:27;;;;;;;4.30;1.20;;;;;;;27.89;37.90;96163.75;5032034;28;20083;-77
2022/07/26 10:47:07;;;;;;;2.85;1.10;;;;;;;28.16;37.99;96160.75;5064605;28;20028;-77
2022/07/26 10:49:35;;;;;;;3.20;1.00;;;;;;;28.54;36.93;96155.00;5027014;28;20094;-77
2022/07/26 10:52:07;;;;;;;3.95;1.15;;;;;;;30.20;34.92;96153.47;5043106;28;20091;-78
2022/07/26 10:54:55;;;;;;;6.88;1.52;;;;;;;30.12;34.00;96148.66;5011112;28;20047;-78
2022/07/26 10:57:26;;;;;;;2.00;1.00;;;;;;;29.34;34.94;96160.34;5042334;28;20075;-78
2022/07/26 10:59:56;;;;;;;2.95;0.80;;;;;;;29.21;35.62;96153.69;5033049;28;20130;-77
2022/07/26 11:02:31;;;;;;;3.53;1.02;;;;;;;29.77;34.28;96152.47;5056371;28;20032;-77
2022/07/26 11:05:00;;;;;;;3.58;1.30;;;;;;;30.63;34.07;96150.06;5061290;28;20051;-78
2022/07/26 11:07:26;;;;;;;4.03;1.00;;;;;;;29.99;34.50;96146.63;5023653;28;20017;-79
2022/07/26 11:09:56;;;;;;;3.45;0.93;;;;;;;28.99;35.87;96161.34;5027307;28;20037;-78
2022/07/26 11:12:23;;;;;;;3.08;1.27;;;;;;;29.70;34.63;96157.41;5034277;28;20568;-78
2022/07/26 11:14:49;;;;;;;4.03;1.35;;;;;;;30.60;33.48;96151.44;5020353;28;20075;-78
2022/07/26 11:17:25;;;;;;;4.10;1.10;;;;;;;29.78;34.31;96154.94;5047713;28;20017;-78
2022/07/26 11:19:50;;;;;;;4.22;1.23;;;;;;;29.54;34.14;96143.97;5028000;28;20432;-77
2022/07/26 11:22:16;;;;;;;3.40;1.23;;;;;;;28.88;35.78;96155.16;5035604;28;20077;-78
2022/07/26 11:24:43;;;;;;;4.60;1.60;;;;;;;28.13;36.82;96155.06;5044252;28;20091;-78
2022/07/26 11:27:09;;;;;;;3.63;1.00;;;;;;;28.81;36.18;96149.25;5045934;28;20029;-78
2022/07/26 11:29:36;;;;;;;1.90;1.17;;;;;;;29.27;36.03;96147.09;5049706;28;20485;-78
2022/07/26 11:32:03;;;;;;;4.32;2.55;;;;;;;29.49;35.71;96144.00;5041188;28;20025;-77
2022/07/26 11:34:34;;;;;;;3.25;0.80;;;;;;;29.31;34.40;96153.59;5052847;28;20044;-78